createdAt,value
2023-03-26T00:02:00.728Z,53.19
2023-03-26T00:06:17.714Z,53.26
2023-03-26T00:10:33.906Z,56.14
2023-03-26T00:14:51.943Z,56.78
2023-03-26T00:19:08.329Z,56.35
2023-03-26T00:23:24.861Z,56.61
2023-03-26T00:27:41.944Z,55.76
2023-03-26T00:31:58.212Z,58.15
2023-03-26T00:36:17.640Z,57.90
2023-03-26T00:40:36.942Z,56.90
2023-03-26T00:44:58.002Z,57.04
2023-03-26T00:49:15.049Z,58.18
2023-03-26T00:53:32.237Z,58.82
2023-03-26T00:57:48.564Z,58.03
2023-03-26T01:02:05.030Z,57.57
2023-03-26T01:06:28.379Z,58.00
2023-03-26T01:10:50.991Z,59.44
2023-03-26T01:15:08.543Z,57.05
2023-03-26T01:20:07.308Z,56.88
2023-03-26T01:24:23.537Z,56.05
2023-03-26T01:28:41.560Z,55.22
2023-03-26T01:33:14.246Z,54.68
2023-03-26T01:38:24.259Z,56.79
2023-03-26T01:42:54.391Z,55.45
2023-03-26T01:47:12.583Z,55.00
2023-03-26T01:51:34.740Z,54.33
2023-03-26T01:55:56.234Z,56.87
2023-03-26T02:00:25.909Z,57.23
2023-03-26T02:04:53.560Z,59.13
2023-03-26T02:09:15.036Z,58.00
2023-03-26T02:13:32.159Z,57.15
2023-03-26T02:17:53.173Z,55.49
2023-03-26T02:22:15.907Z,54.57
2023-03-26T02:26:34.304Z,54.11
2023-03-26T02:30:50.491Z,53.70
2023-03-26T02:35:07.235Z,53.17
2023-03-26T02:39:24.021Z,52.67
2023-03-26T02:43:40.288Z,51.95
2023-03-26T02:47:57.832Z,52.34
2023-03-26T02:52:17.280Z,52.08
2023-03-26T02:56:33.614Z,51.64
2023-03-26T03:00:50.962Z,52.03
2023-03-26T03:05:08.567Z,51.61
2023-03-26T03:09:25.297Z,51.64
2023-03-26T03:13:42.191Z,52.39
2023-03-26T03:17:58.507Z,52.21
2023-03-26T03:22:14.844Z,53.13
2023-03-26T03:26:31.183Z,52.64
2023-03-26T03:30:47.608Z,52.46
2023-03-26T03:35:04.189Z,52.56
2023-03-26T03:39:20.383Z,52.79
2023-03-26T03:43:36.809Z,52.95
2023-03-26T03:47:53.575Z,53.18
2023-03-26T03:52:09.985Z,53.65
2023-03-26T03:56:26.310Z,54.05
2023-03-26T04:00:45.110Z,53.59
2023-03-26T04:05:02.576Z,53.55
2023-03-26T04:09:19.006Z,53.42
2023-03-26T04:13:35.218Z,53.07
2023-03-26T04:17:52.278Z,52.83
2023-03-26T04:22:09.656Z,52.55
2023-03-26T04:26:26.104Z,51.84
2023-03-26T04:30:42.563Z,51.96
2023-03-26T04:35:00.572Z,51.53
2023-03-26T04:39:16.887Z,51.58
2023-03-26T04:43:35.746Z,51.35
2023-03-26T04:47:52.098Z,51.08
2023-03-26T04:52:10.417Z,50.77
2023-03-26T04:56:44.508Z,51.80
2023-03-26T05:01:10.151Z,50.91
2023-03-26T05:05:28.289Z,51.12
2023-03-26T05:09:44.651Z,50.72
2023-03-26T05:14:00.887Z,50.65
2023-03-26T05:18:17.361Z,50.79
2023-03-26T05:22:34.583Z,50.51
2023-03-26T05:26:52.699Z,50.67
2023-03-26T05:31:10.314Z,50.33
2023-03-26T05:35:26.641Z,50.29
2023-03-26T05:39:44.208Z,49.92
2023-03-26T05:44:01.581Z,50.08
2023-03-26T05:48:18.744Z,50.33
2023-03-26T05:52:35.580Z,50.12
2023-03-26T05:56:53.010Z,50.74
2023-03-26T06:01:17.619Z,50.00
2023-03-26T06:05:38.576Z,49.42
2023-03-26T06:09:55.730Z,49.60
2023-03-26T06:14:12.385Z,48.65
2023-03-26T06:18:28.624Z,48.75
2023-03-26T06:22:44.870Z,48.27
2023-03-26T06:27:01.301Z,47.56
2023-03-26T06:31:19.523Z,47.67
2023-03-26T06:35:35.800Z,46.67
2023-03-26T06:39:52.041Z,46.88
2023-03-26T06:44:08.358Z,46.99
2023-03-26T06:48:24.521Z,48.04
2023-03-26T06:52:41.173Z,48.15
2023-03-26T06:56:57.845Z,47.25
2023-03-26T07:01:14.077Z,47.71
2023-03-26T07:05:30.514Z,46.57
2023-03-26T07:09:48.248Z,46.44
2023-03-26T07:14:04.536Z,48.44
2023-03-26T07:18:20.799Z,46.22
2023-03-26T07:22:37.592Z,46.75
2023-03-26T07:27:16.817Z,44.96
2023-03-26T07:31:56.506Z,46.32
2023-03-26T07:36:24.645Z,44.79
2023-03-26T07:40:49.426Z,44.34
2023-03-26T07:45:34.287Z,43.88
2023-03-26T07:49:50.946Z,44.36
2023-03-26T07:54:09.206Z,44.98
2023-03-26T07:58:46.876Z,44.48
2023-03-26T08:03:22.153Z,43.37
2023-03-26T08:08:03.132Z,43.85
2023-03-26T08:12:25.167Z,44.71
2023-03-26T08:16:51.576Z,46.06
2023-03-26T08:21:17.516Z,47.25
2023-03-26T08:25:37.425Z,47.13
2023-03-26T08:30:17.601Z,46.40
2023-03-26T08:34:33.935Z,46.49
2023-03-26T08:38:51.157Z,46.21
2023-03-26T08:43:33.127Z,45.61
2023-03-26T08:48:11.336Z,45.58
2023-03-26T08:52:44.922Z,45.93
2023-03-26T08:57:01.163Z,44.61
2023-03-26T09:01:35.131Z,43.75
2023-03-26T09:06:25.211Z,44.46
2023-03-26T09:11:06.627Z,43.35
2023-03-26T09:15:47.212Z,45.14
2023-03-26T09:20:41.684Z,43.24
2023-03-26T09:25:00.859Z,44.75
2023-03-26T09:29:48.298Z,43.83
2023-03-26T09:34:07.604Z,43.48
2023-03-26T09:38:43.958Z,42.79
2023-03-26T09:43:27.466Z,42.67
2023-03-26T09:47:52.722Z,42.68
2023-03-26T09:52:40.554Z,43.42
2023-03-26T09:57:23.917Z,43.04
2023-03-26T10:02:12.303Z,43.05
2023-03-26T10:07:00.588Z,43.65
2023-03-26T10:11:35.108Z,43.45
2023-03-26T10:16:31.502Z,40.71
2023-03-26T10:21:14.826Z,39.85
2023-03-26T10:25:39.980Z,39.48
2023-03-26T10:30:10.171Z,39.21
2023-03-26T10:34:48.045Z,38.10
2023-03-26T10:39:36.309Z,37.70
2023-03-26T10:44:24.245Z,35.57
2023-03-26T10:48:52.436Z,35.20
2023-03-26T10:53:34.596Z,33.50
2023-03-26T10:57:54.506Z,32.69
2023-03-26T11:02:30.297Z,33.23
2023-03-26T11:08:00.869Z,33.96
2023-03-26T11:12:28.366Z,32.32
2023-03-26T11:17:07.839Z,31.53
2023-03-26T11:21:33.651Z,32.07
2023-03-26T11:26:08.069Z,31.02
2023-03-26T11:30:46.344Z,30.05
2023-03-26T11:35:09.484Z,28.34
2023-03-26T11:39:33.374Z,26.96
2023-03-26T11:44:12.058Z,29.08
2023-03-26T11:48:58.352Z,27.14
2023-03-26T11:53:19.753Z,27.86
2023-03-26T11:57:36.987Z,24.90
2023-03-26T12:02:16.599Z,25.81
2023-03-26T12:06:33.185Z,27.19
2023-03-26T12:11:01.795Z,24.20
2023-03-26T12:15:20.291Z,25.63
2023-03-26T12:19:40.401Z,24.69
2023-03-26T12:23:57.086Z,24.62
2023-03-26T12:28:18.314Z,24.95
2023-03-26T12:32:46.264Z,24.94
2023-03-26T12:37:04.923Z,26.37
2023-03-26T12:44:44.404Z,26.48
2023-03-26T12:47:59.835Z,26.44
2023-03-26T12:51:16.638Z,26.80
2023-03-26T12:56:04.086Z,27.76
2023-03-26T13:00:20.442Z,27.66
2023-03-26T13:04:58.446Z,27.43
2023-03-26T13:10:13.807Z,26.83
2023-03-26T13:14:39.195Z,28.10
2023-03-26T13:18:59.624Z,27.12
2023-03-26T13:23:26.921Z,27.52
2023-03-26T13:27:50.587Z,26.64
2023-03-26T13:32:30.725Z,27.19
2023-03-26T13:37:18.489Z,27.47
2023-03-26T13:41:49.805Z,26.52
2023-03-26T13:46:20.971Z,28.05
2023-03-26T13:50:43.563Z,27.24
2023-03-26T13:55:25.978Z,26.87
2023-03-26T13:59:45.570Z,28.05
2023-03-26T14:04:34.484Z,30.00
2023-03-26T14:09:05.064Z,27.72
2023-03-26T14:13:27.254Z,29.12
2023-03-26T14:17:59.176Z,29.64
2023-03-26T14:22:44.926Z,29.42
2023-03-26T14:27:36.627Z,28.11
2023-03-26T14:32:24.155Z,27.32
2023-03-26T14:36:43.924Z,25.63
2023-03-26T14:41:27.914Z,25.75
2023-03-26T14:45:49.865Z,26.35
2023-03-26T14:50:36.192Z,26.37
2023-03-26T14:54:56.317Z,25.89
2023-03-26T14:59:34.095Z,26.11
2023-03-26T15:04:02.092Z,25.73
2023-03-26T15:08:37.827Z,25.73
2023-03-26T15:13:12.734Z,25.77
2023-03-26T15:17:53.346Z,25.83
2023-03-26T15:22:48.121Z,24.80
2023-03-26T15:27:28.792Z,24.59
2023-03-26T15:32:13.540Z,24.57
2023-03-26T15:36:47.795Z,25.35
2023-03-26T15:41:09.936Z,24.78
2023-03-26T15:45:35.023Z,25.96
2023-03-26T15:50:15.940Z,27.32
2023-03-26T15:54:57.652Z,27.88
2023-03-26T15:59:33.442Z,27.56
2023-03-26T16:04:14.600Z,27.69
2023-03-26T16:09:00.762Z,27.63
2023-03-26T16:13:32.212Z,28.12
2023-03-26T16:18:12.003Z,28.76
2023-03-26T16:22:59.882Z,29.47
2023-03-26T16:27:16.066Z,29.21
2023-03-26T16:31:38.695Z,29.20
2023-03-26T16:36:14.381Z,28.64
2023-03-26T16:40:50.921Z,28.81
2023-03-26T16:45:18.439Z,28.21
2023-03-26T16:50:07.806Z,28.86
2023-03-26T16:54:55.529Z,28.77
2023-03-26T17:00:08.636Z,28.16
2023-03-26T17:04:30.663Z,28.27
2023-03-26T17:08:57.568Z,28.49
2023-03-26T17:13:26.216Z,28.55
2023-03-26T17:18:01.579Z,28.21
2023-03-26T17:22:20.568Z,28.29
2023-03-26T17:26:39.850Z,28.03
2023-03-26T17:31:16.024Z,28.48
2023-03-26T17:35:46.619Z,28.60
2023-03-26T17:40:09.669Z,28.62
2023-03-26T17:44:41.586Z,29.03
2023-03-26T17:49:04.953Z,29.08
2023-03-26T17:53:23.602Z,29.56
2023-03-26T17:57:46.572Z,29.46
2023-03-26T18:02:05.674Z,29.91
2023-03-26T18:06:54.216Z,29.91
2023-03-26T18:11:31.834Z,30.03
2023-03-26T18:15:57.419Z,30.07
2023-03-26T18:20:27.157Z,29.62
2023-03-26T18:24:44.835Z,29.60
2023-03-26T18:29:28.948Z,29.57
2023-03-26T18:33:51.822Z,29.47
2023-03-26T18:38:11.556Z,30.03
2023-03-26T18:42:29.513Z,30.34
2023-03-26T18:46:46.028Z,29.88
2023-03-26T18:51:07.687Z,30.28
2023-03-26T18:55:26.388Z,29.59
2023-03-26T18:59:45.571Z,29.67
2023-03-26T19:04:05.571Z,29.66
2023-03-26T19:08:23.945Z,29.87
2023-03-26T19:12:40.101Z,30.67
2023-03-26T19:17:01.223Z,31.02
2023-03-26T19:21:19.237Z,31.01
2023-03-26T19:25:50.189Z,31.03
2023-03-26T19:30:07.688Z,31.06
2023-03-26T19:34:35.699Z,33.45
2023-03-26T19:39:01.071Z,31.60
2023-03-26T19:43:17.590Z,31.94
2023-03-26T19:47:52.151Z,31.81
2023-03-26T19:52:15.507Z,31.63
2023-03-26T19:56:32.044Z,31.97
2023-03-26T20:00:48.325Z,31.56
2023-03-26T20:05:04.791Z,31.30
2023-03-26T20:09:23.620Z,30.56
2023-03-26T20:13:39.827Z,32.75
2023-03-26T20:17:56.076Z,33.49
2023-03-26T20:22:17.201Z,33.67
2023-03-26T20:26:33.356Z,34.43
2023-03-26T20:30:51.238Z,34.79
2023-03-26T20:35:16.748Z,34.82
2023-03-26T20:39:32.973Z,34.84
2023-03-26T20:43:51.037Z,39.37
2023-03-26T20:48:10.532Z,41.33
2023-03-26T20:52:28.536Z,46.89
2023-03-26T20:56:45.874Z,51.30
2023-03-26T21:01:03.169Z,53.43
2023-03-26T21:05:24.649Z,52.68
2023-03-26T21:09:41.324Z,53.95
2023-03-26T21:14:06.948Z,53.31
2023-03-26T21:18:23.523Z,53.73
2023-03-26T21:22:50.837Z,53.73
2023-03-26T21:27:12.799Z,55.36
2023-03-26T21:31:34.597Z,55.66
2023-03-26T21:35:52.016Z,56.18
2023-03-26T21:40:14.994Z,55.74
2023-03-26T21:44:31.724Z,56.18
2023-03-26T21:48:48.348Z,55.45
2023-03-26T21:53:04.750Z,55.37
2023-03-26T21:57:59.834Z,55.13
2023-03-26T22:02:23.261Z,54.10
2023-03-26T22:06:46.329Z,54.67
2023-03-26T22:11:02.908Z,53.31
2023-03-26T22:15:19.394Z,52.47
2023-03-26T22:19:36.141Z,51.09
2023-03-26T22:23:53.209Z,50.57
2023-03-26T22:28:09.711Z,51.25
2023-03-26T22:32:26.307Z,53.52
2023-03-26T22:36:49.089Z,52.28
2023-03-26T22:41:05.672Z,53.38
2023-03-26T22:45:23.057Z,53.85
2023-03-26T22:49:40.200Z,53.50
2023-03-26T22:53:56.649Z,52.93
2023-03-26T22:58:13.002Z,53.14
2023-03-26T23:02:29.215Z,52.98
2023-03-26T23:06:45.461Z,50.35
2023-03-26T23:11:02.289Z,48.90
2023-03-26T23:15:20.753Z,48.68
2023-03-26T23:19:37.343Z,50.41
2023-03-26T23:23:53.603Z,50.09
2023-03-26T23:28:10.151Z,51.03
2023-03-26T23:32:26.406Z,52.71
2023-03-26T23:36:42.685Z,53.46
2023-03-26T23:40:59.785Z,53.65
2023-03-26T23:45:16.685Z,53.59
2023-03-26T23:49:32.852Z,53.24
2023-03-26T23:53:49.603Z,53.43
2023-03-26T23:58:06.952Z,53.10
